Abrams, Wisconsin
Current Conditions -  °F | °C
As of 4:35 PM on Friday 24 Oct 2014 (Local Time) from KOCQ Reporting Station
Clear Clear  
Wind Chill: 55°   Ceiling: Unl
Heat Index: 55°   Visibility: 10mi
Dew Point: 49°   Wind: 5mph
Humidity: 79%   Direction: 230°SW
Pressure: 29.9"   Gusts: NA
Location:  44.78°N, 88.06°W
Report Text: KOCQ 242135Z AUTO 23004KT 10SM CLR 13/10 A2990 RMK AO1 T01300095
Loading
Personal Weather Stations






























Interactive Weather Map
Tropical Storm Tracking
New forecast layout! Learn more

10-Day Weather Forecast

Advertisements
Track Severe Weather on mobile